Seastreak Highlands — WDE4031 — position and weather

sailwx.info

Track history (hours):
 
Tides and Currents Weather Stations Pressure Air Temp Water Temp Dewpoint Dewpoint Depression Visibility Wind Speed Wind Dir Waves Ship Positions

Seastreak Highlands

Owner: Seastreak llc, atlantic highlands, NJ. More information available from US FCC via Universal Licensing System and Coast Guard Vessel Documentation Center.

Last reported at 2017-Mar-24 00:33 UTC. Time now 2017-Mar-24 06:15 UTC.
Position N 40°25' W 073°60'.

Length 44 m.

Type: High speed craft. MMSI: 367347670.

Date/timePositionNaut miles runAvg speedWind from/ knotsBaromVisibWave heightAir tempDewpointWater temp
2017-Mar-24 00:33N 40°25' W 073°60'1919.5
2017-Mar-23 23:33N 40°44' W 073°58'1918.2
2017-Mar-23 22:30N 40°25' W 074°00'1717.8
2017-Mar-23 21:34N 40°42' W 074°01'1 0.6
2017-Mar-23 20:34N 40°42' W 074°00'8 6.6
2017-Mar-23 19:19N 40°34' W 074°02'1114.8
2017-Mar-23 18:33N 40°45' W 073°58'0 0.0
2017-Mar-23 17:33N 40°45' W 073°58'0 0.0
2017-Mar-23 16:33N 40°45' W 073°58'0 0.0
2017-Mar-23 15:33N 40°45' W 073°58'0 0.0
2017-Mar-23 14:32N 40°45' W 073°58'3 3.2
2017-Mar-23 13:33N 40°42' W 074°00'1111.1
2017-Mar-23 12:33N 40°31' W 074°02'9 8.8
2017-Mar-23 11:34N 40°40' W 074°02'15 1.3
2017-Mar-23 00:31N 40°25' W 074°01'2020.4
2017-Mar-22 23:34N 40°45' W 073°58'2018.7
2017-Mar-22 22:31N 40°25' W 074°01'1617.1
2017-Mar-22 21:34N 40°41' W 074°01'4 3.7
2017-Mar-22 20:34N 40°38' W 074°03'6 5.3
2017-Mar-22 19:24N 40°32' W 074°02'1315.4
2017-Mar-22 18:33N 40°45' W 073°58'0 0.0
2017-Mar-22 17:33N 40°45' W 073°58'0 0.0
2017-Mar-22 16:33N 40°45' W 073°58'0 0.0
2017-Mar-22 15:33N 40°45' W 073°58'0 0.0
2017-Mar-22 14:33N 40°45' W 073°58'5 5.4
2017-Mar-22 13:34N 40°40' W 074°01'6 5.5
2017-Mar-22 12:30N 40°34' W 074°02'3 3.6
2017-Mar-22 11:34N 40°37' W 074°03'12 1.1
2017-Mar-22 00:30N 40°25' W 074°01'1819.5
2017-Mar-21 23:33N 40°44' W 073°58'1916.4
2017-Mar-21 22:24N 40°25' W 073°60'1720.5
2017-Mar-21 21:33N 40°42' W 074°00'3 3.1
2017-Mar-21 20:34N 40°39' W 074°02'8 7.2
2017-Mar-21 19:26N 40°31' W 074°02'1415.9
2017-Mar-21 18:33N 40°45' W 073°58'0 0.0
2017-Mar-21 17:33N 40°45' W 073°58'0 0.0
2017-Mar-21 16:33N 40°45' W 073°58'0 0.0
2017-Mar-21 15:33N 40°45' W 073°58'3 3.3
2017-Mar-21 14:33N 40°42' W 074°01'1 0.6
2017-Mar-21 13:34N 40°42' W 074°00'1111.0
2017-Mar-21 12:32N 40°31' W 074°02'9 9.4
2017-Mar-21 11:33N 40°40' W 074°02'15 1.3
2017-Mar-21 00:28N 40°25' W 074°02'1920.8
2017-Mar-20 23:33N 40°44' W 073°58'2016.3
2017-Mar-20 22:21N 40°25' W 073°60'1721.1
2017-Mar-20 21:34N 40°41' W 074°01'2 1.6
2017-Mar-20 20:34N 40°40' W 074°01'5 4.3
2017-Mar-20 19:17N 40°34' W 074°03'1114.6
2017-Mar-20 18:33N 40°45' W 073°58'0 0.0
2017-Mar-20 17:34N 40°45' W 073°58'0 0.0
2017-Mar-20 16:34N 40°45' W 073°58'0 0.0
2017-Mar-20 15:33N 40°45' W 073°58'0 0.0
2017-Mar-20 14:34N 40°45' W 073°58'0 0.0
2017-Mar-20 13:33N 40°45' W 073°58'8 8.2
2017-Mar-20 12:34N 40°37' W 074°03'6 5.6
2017-Mar-20 11:31N 40°31' W 074°02'7 7.3
2017-Mar-20 10:33N 40°38' W 074°03'1313.1
2017-Mar-20 09:33N 40°25' W 074°02'  
2017-Mar-18 01:32N 40°25' W 074°02'11 7.2
2017-Mar-18 00:03N 40°36' W 074°03'916.2
2017-Mar-17 23:29N 40°45' W 073°58'1917.2
2017-Mar-17 22:22N 40°25' W 074°01'1620.4
2017-Mar-17 21:34N 40°42' W 074°01'3 2.7
2017-Mar-17 20:34N 40°39' W 074°02'8 6.9
2017-Mar-17 19:27N 40°32' W 074°02'1314.7
2017-Mar-17 18:33N 40°45' W 073°58'0 0.0
2017-Mar-17 17:33N 40°45' W 073°58'0 0.0
2017-Mar-17 16:33N 40°45' W 073°58'0 0.0
2017-Mar-17 15:33N 40°45' W 073°58'2 1.9
2017-Mar-17 14:33N 40°43' W 073°58'2 1.6
2017-Mar-17 13:33N 40°42' W 074°00'10 9.8
2017-Mar-17 12:29N 40°32' W 074°02'7 7.9
2017-Mar-17 11:34N 40°39' W 074°02'15 7.2
2017-Mar-17 09:31N 40°25' W 073°60'2 0.2
2017-Mar-17 00:33N 40°25' W 074°02'1919.5
2017-Mar-16 23:33N 40°45' W 073°58'2018.2
2017-Mar-16 22:28N 40°25' W 074°01'1718.5
2017-Mar-16 21:33N 40°42' W 074°00'3 2.8
2017-Mar-16 20:33N 40°39' W 074°02'1211.6
2017-Mar-16 19:31N 40°27' W 074°01'1818.3
2017-Mar-16 18:33N 40°45' W 073°58'0 0.0
2017-Mar-16 17:33N 40°45' W 073°58'0 0.0
2017-Mar-16 16:33N 40°45' W 073°58'0 0.0
2017-Mar-16 15:33N 40°45' W 073°58'0 0.0
2017-Mar-16 14:33N 40°45' W 073°58'4 3.6
2017-Mar-16 13:34N 40°42' W 074°01'10 9.8
2017-Mar-16 12:32N 40°32' W 074°02'6 6.6
2017-Mar-16 11:34N 40°38' W 074°03'1411.6
2017-Mar-16 10:23N 40°25' W 073°60'2 0.2
2017-Mar-16 00:31N 40°25' W 074°02'1919.8
2017-Mar-15 23:33N 40°44' W 073°58'1917.7
2017-Mar-15 22:28N 40°25' W 073°60'1719.0
2017-Mar-15 21:33N 40°42' W 074°00'2 2.4
2017-Mar-15 20:33N 40°40' W 074°02'1211.5
2017-Mar-15 19:30N 40°27' W 074°01'1718.6
2017-Mar-15 18:33N 40°45' W 073°58'0 0.0
2017-Mar-15 17:32N 40°45' W 073°58'0 0.0
2017-Mar-15 16:34N 40°45' W 073°58'0 0.0
2017-Mar-15 15:33N 40°45' W 073°58'0 0.0
2017-Mar-15 14:33N 40°45' W 073°58'3 3.3
2017-Mar-15 13:34N 40°42' W 074°00'1010.2
2017-Mar-15 12:33N 40°32' W 074°02'7 6.9
2017-Mar-15 11:34N 40°38' W 074°02'14 1.2
2017-Mar-14 23:32N 40°25' W 073°60'0 0.0
2017-Mar-14 21:33N 40°25' W 073°60'0 0.0
2017-Mar-14 20:30N 40°25' W 073°60'0 0.0
2017-Mar-14 19:30N 40°25' W 073°60'0 0.0
2017-Mar-14 18:24N 40°25' W 073°60'  
Track history (hours):
 
Tides and Currents Weather Stations Pressure Air Temp Water Temp Dewpoint Dewpoint Depression Visibility Wind Speed Wind Dir Waves Ship Positions

Seastreak Highlands

Owner: Seastreak llc, atlantic highlands, NJ. More information available from US FCC via Universal Licensing System and Coast Guard Vessel Documentation Center.

Last reported at 2017-Mar-24 00:33 UTC. Time now 2017-Mar-24 06:15 UTC.
Position N 40°25' W 073°60'.

Length 44 m.

Type: High speed craft. MMSI: 367347670.

Date/timePositionNaut miles runAvg speedWind from/ knotsBaromVisibWave heightAir tempDewpointWater temp
2017-Mar-24 00:33N 40°25' W 073°60'1919.5
2017-Mar-23 23:33N 40°44' W 073°58'1918.2
2017-Mar-23 22:30N 40°25' W 074°00'1717.8
2017-Mar-23 21:34N 40°42' W 074°01'1 0.6
2017-Mar-23 20:34N 40°42' W 074°00'8 6.6
2017-Mar-23 19:19N 40°34' W 074°02'1114.8
2017-Mar-23 18:33N 40°45' W 073°58'0 0.0
2017-Mar-23 17:33N 40°45' W 073°58'0 0.0
2017-Mar-23 16:33N 40°45' W 073°58'0 0.0
2017-Mar-23 15:33N 40°45' W 073°58'0 0.0
2017-Mar-23 14:32N 40°45' W 073°58'3 3.2
2017-Mar-23 13:33N 40°42' W 074°00'1111.1
2017-Mar-23 12:33N 40°31' W 074°02'9 8.8
2017-Mar-23 11:34N 40°40' W 074°02'15 1.3
2017-Mar-23 00:31N 40°25' W 074°01'2020.4
2017-Mar-22 23:34N 40°45' W 073°58'2018.7
2017-Mar-22 22:31N 40°25' W 074°01'1617.1
2017-Mar-22 21:34N 40°41' W 074°01'4 3.7
2017-Mar-22 20:34N 40°38' W 074°03'6 5.3
2017-Mar-22 19:24N 40°32' W 074°02'1315.4
2017-Mar-22 18:33N 40°45' W 073°58'0 0.0
2017-Mar-22 17:33N 40°45' W 073°58'0 0.0
2017-Mar-22 16:33N 40°45' W 073°58'0 0.0
2017-Mar-22 15:33N 40°45' W 073°58'0 0.0
2017-Mar-22 14:33N 40°45' W 073°58'5 5.4
2017-Mar-22 13:34N 40°40' W 074°01'6 5.5
2017-Mar-22 12:30N 40°34' W 074°02'3 3.6
2017-Mar-22 11:34N 40°37' W 074°03'12 1.1
2017-Mar-22 00:30N 40°25' W 074°01'1819.5
2017-Mar-21 23:33N 40°44' W 073°58'1916.4
2017-Mar-21 22:24N 40°25' W 073°60'1720.5
2017-Mar-21 21:33N 40°42' W 074°00'3 3.1
2017-Mar-21 20:34N 40°39' W 074°02'8 7.2
2017-Mar-21 19:26N 40°31' W 074°02'1415.9
2017-Mar-21 18:33N 40°45' W 073°58'0 0.0
2017-Mar-21 17:33N 40°45' W 073°58'0 0.0
2017-Mar-21 16:33N 40°45' W 073°58'0 0.0
2017-Mar-21 15:33N 40°45' W 073°58'3 3.3
2017-Mar-21 14:33N 40°42' W 074°01'1 0.6
2017-Mar-21 13:34N 40°42' W 074°00'1111.0
2017-Mar-21 12:32N 40°31' W 074°02'9 9.4
2017-Mar-21 11:33N 40°40' W 074°02'15 1.3
2017-Mar-21 00:28N 40°25' W 074°02'1920.8
2017-Mar-20 23:33N 40°44' W 073°58'2016.3
2017-Mar-20 22:21N 40°25' W 073°60'1721.1
2017-Mar-20 21:34N 40°41' W 074°01'2 1.6
2017-Mar-20 20:34N 40°40' W 074°01'5 4.3
2017-Mar-20 19:17N 40°34' W 074°03'1114.6
2017-Mar-20 18:33N 40°45' W 073°58'0 0.0
2017-Mar-20 17:34N 40°45' W 073°58'0 0.0
2017-Mar-20 16:34N 40°45' W 073°58'0 0.0
2017-Mar-20 15:33N 40°45' W 073°58'0 0.0
2017-Mar-20 14:34N 40°45' W 073°58'0 0.0
2017-Mar-20 13:33N 40°45' W 073°58'8 8.2
2017-Mar-20 12:34N 40°37' W 074°03'6 5.6
2017-Mar-20 11:31N 40°31' W 074°02'7 7.3
2017-Mar-20 10:33N 40°38' W 074°03'1313.1
2017-Mar-20 09:33N 40°25' W 074°02'  
2017-Mar-18 01:32N 40°25' W 074°02'11 7.2
2017-Mar-18 00:03N 40°36' W 074°03'916.2
2017-Mar-17 23:29N 40°45' W 073°58'1917.2
2017-Mar-17 22:22N 40°25' W 074°01'1620.4
2017-Mar-17 21:34N 40°42' W 074°01'3 2.7
2017-Mar-17 20:34N 40°39' W 074°02'8 6.9
2017-Mar-17 19:27N 40°32' W 074°02'1314.7
2017-Mar-17 18:33N 40°45' W 073°58'0 0.0
2017-Mar-17 17:33N 40°45' W 073°58'0 0.0
2017-Mar-17 16:33N 40°45' W 073°58'0 0.0
2017-Mar-17 15:33N 40°45' W 073°58'2 1.9
2017-Mar-17 14:33N 40°43' W 073°58'2 1.6
2017-Mar-17 13:33N 40°42' W 074°00'10 9.8
2017-Mar-17 12:29N 40°32' W 074°02'7 7.9
2017-Mar-17 11:34N 40°39' W 074°02'15 7.2
2017-Mar-17 09:31N 40°25' W 073°60'2 0.2
2017-Mar-17 00:33N 40°25' W 074°02'1919.5
2017-Mar-16 23:33N 40°45' W 073°58'2018.2
2017-Mar-16 22:28N 40°25' W 074°01'1718.5
2017-Mar-16 21:33N 40°42' W 074°00'3 2.8
2017-Mar-16 20:33N 40°39' W 074°02'1211.6
2017-Mar-16 19:31N 40°27' W 074°01'1818.3
2017-Mar-16 18:33N 40°45' W 073°58'0 0.0
2017-Mar-16 17:33N 40°45' W 073°58'0 0.0
2017-Mar-16 16:33N 40°45' W 073°58'0 0.0
2017-Mar-16 15:33N 40°45' W 073°58'0 0.0
2017-Mar-16 14:33N 40°45' W 073°58'4 3.6
2017-Mar-16 13:34N 40°42' W 074°01'10 9.8
2017-Mar-16 12:32N 40°32' W 074°02'6 6.6
2017-Mar-16 11:34N 40°38' W 074°03'1411.6
2017-Mar-16 10:23N 40°25' W 073°60'2 0.2
2017-Mar-16 00:31N 40°25' W 074°02'1919.8
2017-Mar-15 23:33N 40°44' W 073°58'1917.7
2017-Mar-15 22:28N 40°25' W 073°60'1719.0
2017-Mar-15 21:33N 40°42' W 074°00'2 2.4
2017-Mar-15 20:33N 40°40' W 074°02'1211.5
2017-Mar-15 19:30N 40°27' W 074°01'1718.6
2017-Mar-15 18:33N 40°45' W 073°58'0 0.0
2017-Mar-15 17:32N 40°45' W 073°58'0 0.0
2017-Mar-15 16:34N 40°45' W 073°58'0 0.0
2017-Mar-15 15:33N 40°45' W 073°58'0 0.0
2017-Mar-15 14:33N 40°45' W 073°58'3 3.3
2017-Mar-15 13:34N 40°42' W 074°00'1010.2
2017-Mar-15 12:33N 40°32' W 074°02'7 6.9
2017-Mar-15 11:34N 40°38' W 074°02'14 1.2
2017-Mar-14 23:32N 40°25' W 073°60'0 0.0
2017-Mar-14 21:33N 40°25' W 073°60'0 0.0
2017-Mar-14 20:30N 40°25' W 073°60'0 0.0
2017-Mar-14 19:30N 40°25' W 073°60'0 0.0
2017-Mar-14 18:24N 40°25' W 073°60'  

Dump ship's entire track history